createdAt,value
2023-01-10T00:01:20.220Z,101202.06
2023-01-10T00:04:22.823Z,101209.72
2023-01-10T00:07:26.709Z,101201.88
2023-01-10T00:10:29.281Z,101210.69
2023-01-10T00:13:30.901Z,101205.63
2023-01-10T00:16:33.436Z,101212.81
2023-01-10T00:19:36.009Z,101214.44
2023-01-10T00:22:39.882Z,101227.16
2023-01-10T00:25:42.464Z,101223.25
2023-01-10T00:28:45.157Z,101224.88
2023-01-10T00:31:47.679Z,101242.66
2023-01-10T00:34:50.227Z,101252.63
2023-01-10T00:37:57.860Z,101240.38
2023-01-10T00:41:00.515Z,101251.13
2023-01-10T00:44:02.066Z,101253.09
2023-01-10T00:47:04.721Z,101255.22
2023-01-10T00:50:09.439Z,101264.03
2023-01-10T00:53:13.352Z,101264.03
2023-01-10T00:56:15.928Z,101254.56
2023-01-10T00:59:18.911Z,101264.84
2023-01-10T01:02:21.581Z,101269.25
2023-01-10T01:05:24.293Z,101285.06
2023-01-10T01:08:28.167Z,101288.34
2023-01-10T01:11:30.728Z,101285.56
2023-01-10T01:14:33.365Z,101297.16
2023-01-10T01:17:35.929Z,101290.16
2023-01-10T01:20:39.770Z,101299.94
2023-01-10T01:23:43.897Z,101297.16
2023-01-10T01:26:46.425Z,101298.31
2023-01-10T01:29:49.107Z,101307.09
2023-01-10T01:32:51.692Z,101308.72
2023-01-10T01:35:54.260Z,101310.38
2023-01-10T01:38:58.203Z,101315.91
2023-01-10T01:42:00.816Z,101319.00
2023-01-10T01:45:39.656Z,101319.81
2023-01-10T01:48:42.356Z,101328.47
2023-01-10T01:51:45.853Z,101330.59
2023-01-10T01:54:49.801Z,101333.88
2023-01-10T01:57:52.403Z,101329.78
2023-01-10T02:00:54.987Z,101342.03
2023-01-10T02:03:59.475Z,101351.47
2023-01-10T02:07:02.024Z,101353.13
2023-01-10T02:10:07.462Z,101340.38
2023-01-10T02:13:10.483Z,101344.31
2023-01-10T02:16:13.194Z,101348.56
2023-01-10T02:19:19.561Z,101345.78
2023-01-10T02:22:49.245Z,101348.56
2023-01-10T02:26:04.968Z,101343.84
2023-01-10T02:29:40.785Z,101356.41
2023-01-10T02:32:56.924Z,101358.03
2023-01-10T02:36:13.315Z,101369.75
2023-01-10T02:39:17.982Z,101369.13
2023-01-10T02:42:24.883Z,101380.53
2023-01-10T02:45:30.447Z,101374.84
2023-01-10T02:48:34.326Z,101381.88
2023-01-10T02:51:36.912Z,101389.38
2023-01-10T02:54:39.447Z,101397.34
2023-01-10T02:57:46.207Z,101389.03
2023-01-10T03:00:50.084Z,101387.41
2023-01-10T03:03:57.801Z,101390.81
2023-01-10T03:07:06.388Z,101397.03
2023-01-10T03:10:11.220Z,101391.63
2023-01-10T03:13:14.975Z,101388.38
2023-01-10T03:16:19.129Z,101383.78
2023-01-10T03:19:24.284Z,101394.09
2023-01-10T03:22:26.900Z,101395.53
2023-01-10T03:25:32.542Z,101396.97
2023-01-10T03:28:36.525Z,101388.19
2023-01-10T03:31:41.155Z,101405.97
2023-01-10T03:34:45.063Z,101409.88
2023-01-10T03:37:50.757Z,101416.06
2023-01-10T03:40:55.725Z,101411.16
2023-01-10T03:44:18.683Z,101415.91
2023-01-10T03:47:24.160Z,101415.72
2023-01-10T03:50:28.098Z,101419.63
2023-01-10T03:53:30.638Z,101421.41
2023-01-10T03:56:33.170Z,101420.94
2023-01-10T03:59:35.676Z,101432.31
2023-01-10T04:02:38.255Z,101432.47
2023-01-10T04:05:42.176Z,101425.28
2023-01-10T04:08:44.939Z,101428.38
2023-01-10T04:11:47.459Z,101432.28
2023-01-10T04:14:50.035Z,101448.91
2023-01-10T04:17:52.616Z,101447.31
2023-01-10T04:20:56.515Z,101463.94
2023-01-10T04:23:59.112Z,101482.84
2023-01-10T04:27:01.660Z,101464.56
2023-01-10T04:30:04.542Z,101453.78
2023-01-10T04:33:07.305Z,101446.91
2023-01-10T04:36:11.323Z,101457.19
2023-01-10T04:39:13.864Z,101451.94
2023-01-10T04:42:17.202Z,101457.50
2023-01-10T04:45:21.697Z,101469.72
2023-01-10T04:48:24.483Z,101483.06
2023-01-10T04:51:28.745Z,101490.38
2023-01-10T04:54:31.365Z,101491.53
2023-01-10T04:57:33.985Z,101495.41
2023-01-10T05:00:36.581Z,101504.91
2023-01-10T05:03:39.227Z,101493.59
2023-01-10T05:06:43.150Z,101497.50
2023-01-10T05:09:45.855Z,101506.16
2023-01-10T05:12:48.436Z,101503.69
2023-01-10T05:15:50.994Z,101502.06
2023-01-10T05:18:53.518Z,101513.75
2023-01-10T05:21:57.401Z,101512.97
2023-01-10T05:24:59.989Z,101527.44
2023-01-10T05:28:02.545Z,101536.41
2023-01-10T05:31:06.616Z,101532.81
2023-01-10T05:34:11.935Z,101527.06
2023-01-10T05:37:15.896Z,101529.84
2023-01-10T05:40:18.743Z,101536.03
2023-01-10T05:43:21.313Z,101545.47
2023-01-10T05:46:23.848Z,101543.81
2023-01-10T05:49:26.383Z,101551.59
2023-01-10T05:52:30.308Z,101549.97
2023-01-10T05:55:33.014Z,101557.78
2023-01-10T05:58:35.588Z,101558.41
2023-01-10T06:01:38.167Z,101555.16
2023-01-10T06:04:40.756Z,101564.59
2023-01-10T06:07:44.633Z,101552.19
2023-01-10T06:10:47.184Z,101551.34
2023-01-10T06:13:53.753Z,101543.03
2023-01-10T06:16:56.284Z,101552.81
2023-01-10T06:19:58.850Z,101553.72
2023-01-10T06:23:04.722Z,101563.81
2023-01-10T06:26:07.404Z,101571.94
2023-01-10T06:29:09.987Z,101570.91
2023-01-10T06:32:12.579Z,101574.59
2023-01-10T06:35:15.117Z,101582.22
2023-01-10T06:38:19.308Z,101576.97
2023-01-10T06:41:21.842Z,101584.47
2023-01-10T06:44:24.365Z,101593.59
2023-01-10T06:47:26.969Z,101599.63
2023-01-10T06:50:29.530Z,101604.06
2023-01-10T06:53:33.477Z,101607.31
2023-01-10T06:56:36.067Z,101615.94
2023-01-10T06:59:38.651Z,101625.16
2023-01-10T07:02:41.366Z,101630.19
2023-01-10T07:05:43.921Z,101627.44
2023-01-10T07:08:47.936Z,101636.22
2023-01-10T07:11:50.524Z,101634.50
2023-01-10T07:14:53.117Z,101644.81
2023-01-10T07:17:57.598Z,101649.75
2023-01-10T07:21:00.182Z,101649.75
2023-01-10T07:24:04.172Z,101650.38
2023-01-10T07:27:06.747Z,101649.25
2023-01-10T07:30:10.708Z,101657.53
2023-01-10T07:33:13.314Z,101648.13
2023-01-10T07:36:16.303Z,101651.19
2023-01-10T07:39:20.172Z,101650.38
2023-01-10T07:42:22.686Z,101648.72
2023-01-10T07:45:26.927Z,101651.19
2023-01-10T07:48:29.589Z,101654.25
2023-01-10T07:51:32.151Z,101667.59
2023-01-10T07:54:36.166Z,101655.50
2023-01-10T07:57:38.705Z,101653.88
2023-01-10T08:00:41.285Z,101661.06
2023-01-10T08:03:43.964Z,101667.00
2023-01-10T08:06:46.618Z,101664.63
2023-01-10T08:09:50.517Z,101663.09
2023-01-10T08:12:53.098Z,101677.63
2023-01-10T08:15:55.775Z,101673.84
2023-01-10T08:18:58.637Z,101667.78
2023-01-10T08:22:03.100Z,101679.97
2023-01-10T08:25:07.572Z,101662.88
2023-01-10T08:28:10.213Z,101657.94
2023-01-10T08:31:12.842Z,101669.00
2023-01-10T08:34:15.415Z,101667.34
2023-01-10T08:37:17.980Z,101654.63
2023-01-10T08:40:21.897Z,101650.75
2023-01-10T08:43:24.588Z,101646.28
2023-01-10T08:46:27.225Z,101644.81
2023-01-10T08:49:29.954Z,101648.94
2023-01-10T08:52:32.496Z,101646.16
2023-01-10T08:55:36.404Z,101652.22
2023-01-10T08:58:38.944Z,101635.00
2023-01-10T09:01:41.555Z,101636.03
2023-01-10T09:04:44.135Z,101625.78
2023-01-10T09:07:46.815Z,101626.00
2023-01-10T09:10:50.749Z,101625.91
2023-01-10T09:13:53.267Z,101627.66
2023-01-10T09:16:55.783Z,101620.47
2023-01-10T09:19:58.448Z,101615.53
2023-01-10T09:23:05.330Z,101624.97
2023-01-10T09:26:09.406Z,101628.06
2023-01-10T09:29:11.949Z,101618.13
2023-01-10T09:32:14.813Z,101617.59
2023-01-10T09:35:17.471Z,101620.66
2023-01-10T09:38:22.255Z,101628.06
2023-01-10T09:41:58.276Z,101631.53
2023-01-10T09:45:05.512Z,101637.06
2023-01-10T09:48:09.727Z,101631.53
2023-01-10T09:51:23.672Z,101632.78
2023-01-10T09:54:27.524Z,101626.09
2023-01-10T09:57:30.145Z,101627.44
2023-01-10T10:00:40.105Z,101627.53
2023-01-10T10:03:46.136Z,101610.00
2023-01-10T10:06:49.603Z,101622.19
2023-01-10T10:09:52.168Z,101617.28
2023-01-10T10:13:14.041Z,101607.97
2023-01-10T10:16:26.841Z,101618.63
2023-01-10T10:19:32.436Z,101611.53
2023-01-10T10:22:39.296Z,101594.72
2023-01-10T10:25:48.110Z,101588.91
2023-01-10T10:29:15.260Z,101596.06
2023-01-10T10:32:31.677Z,101591.16
2023-01-10T10:35:35.918Z,101590.53
2023-01-10T10:38:38.902Z,101585.22
2023-01-10T10:41:42.321Z,101571.91
2023-01-10T10:44:46.286Z,101557.78
2023-01-10T10:47:53.438Z,101563.91
2023-01-10T10:51:01.421Z,101552.03
2023-01-10T10:54:06.231Z,101543.44
2023-01-10T10:57:08.804Z,101541.78
2023-01-10T11:00:16.467Z,101534.00
2023-01-10T11:03:28.609Z,101535.44
2023-01-10T11:06:34.062Z,101542.84
2023-01-10T11:09:37.443Z,101530.31
2023-01-10T11:12:41.936Z,101526.44
2023-01-10T11:15:45.406Z,101524.38
2023-01-10T11:18:49.356Z,101524.38
2023-01-10T11:21:54.265Z,101519.03
2023-01-10T11:24:57.529Z,101509.81
2023-01-10T11:28:01.459Z,101505.94
2023-01-10T11:31:04.093Z,101503.66
2023-01-10T11:34:09.392Z,101494.22
2023-01-10T11:37:20.082Z,101486.44
2023-01-10T11:40:24.328Z,101488.69
2023-01-10T11:43:29.132Z,101483.16
2023-01-10T11:46:31.668Z,101475.38
2023-01-10T11:49:37.796Z,101471.69
2023-01-10T11:52:44.131Z,101472.91
2023-01-10T11:55:47.858Z,101459.88
2023-01-10T11:58:50.397Z,101441.81
2023-01-10T12:02:00.709Z,101436.19
2023-01-10T12:05:06.186Z,101443.34
2023-01-10T12:08:12.507Z,101444.38
2023-01-10T12:11:29.277Z,101433.91
2023-01-10T12:14:32.075Z,101428.59
2023-01-10T12:17:36.122Z,101432.66
2023-01-10T12:20:42.903Z,101417.69
2023-01-10T12:23:45.824Z,101421.59
2023-01-10T12:26:50.851Z,101427.63
2023-01-10T12:29:57.320Z,101410.72
2023-01-10T12:33:01.539Z,101402.06
2023-01-10T12:36:10.278Z,101417.91
2023-01-10T12:39:16.443Z,101405.34
2023-01-10T12:42:41.618Z,101402.28
2023-01-10T12:45:47.314Z,101390.38
2023-01-10T12:48:53.436Z,101384.34
2023-01-10T12:51:59.476Z,101386.50
2023-01-10T12:55:03.158Z,101382.59
2023-01-10T12:58:06.034Z,101369.88
2023-01-10T13:01:09.094Z,101366.09
2023-01-10T13:04:13.157Z,101362.97
2023-01-10T13:07:17.373Z,101351.84
2023-01-10T13:10:21.343Z,101341.72
2023-01-10T13:13:30.260Z,101330.66
2023-01-10T13:16:37.023Z,101332.72
2023-01-10T13:19:39.598Z,101316.56
2023-01-10T13:22:43.543Z,101312.31
2023-01-10T13:25:54.845Z,101315.16
2023-01-10T13:28:58.367Z,101307.00
2023-01-10T13:32:02.378Z,101288.59
2023-01-10T13:35:13.273Z,101270.28
2023-01-10T13:38:21.229Z,101267.84
2023-01-10T13:41:41.221Z,101266.53
2023-01-10T13:45:32.167Z,101247.69
2023-01-10T13:48:34.753Z,101237.56
2023-01-10T13:51:37.450Z,101230.41
2023-01-10T13:54:50.202Z,101232.34
2023-01-10T13:57:53.768Z,101225.69
2023-01-10T14:01:14.351Z,101194.91
2023-01-10T14:04:20.909Z,101191.19
2023-01-10T14:07:26.161Z,101194.25
2023-01-10T14:10:30.732Z,101174.44
2023-01-10T14:13:33.309Z,101168.91
2023-01-10T14:16:37.129Z,101151.50
2023-01-10T14:19:39.692Z,101139.63
2023-01-10T14:22:43.037Z,101133.44
2023-01-10T14:25:46.937Z,101126.28
2023-01-10T14:28:50.570Z,101110.34
2023-01-10T14:31:54.649Z,101115.72
2023-01-10T14:34:57.220Z,101100.28
2023-01-10T14:37:59.946Z,101089.22
2023-01-10T14:41:04.744Z,101082.69
2023-01-10T14:44:11.922Z,101078.81
2023-01-10T14:47:26.670Z,101061.41
2023-01-10T14:50:32.193Z,101068.69
2023-01-10T14:53:34.783Z,101052.91
2023-01-10T14:56:39.911Z,101066.13
2023-01-10T14:59:42.451Z,101060.72
2023-01-10T15:02:45.044Z,101030.94
2023-01-10T15:05:49.911Z,101044.63
2023-01-10T15:09:03.556Z,101029.97
2023-01-10T15:12:08.592Z,101016.50
2023-01-10T15:15:13.472Z,101011.59
2023-01-10T15:18:26.505Z,101018.25
2023-01-10T15:21:29.107Z,101012.72
2023-01-10T15:24:33.512Z,100994.53
2023-01-10T15:27:39.816Z,101001.50
2023-01-10T15:30:42.509Z,101007.53
2023-01-10T15:33:45.627Z,100982.31
2023-01-10T15:36:49.887Z,100981.19
2023-01-10T15:39:52.492Z,100979.56
2023-01-10T15:43:12.360Z,100988.88
2023-01-10T15:46:19.796Z,100965.63
2023-01-10T15:49:22.423Z,100982.22
2023-01-10T15:52:25.032Z,100960.72
2023-01-10T15:55:41.135Z,100905.13
2023-01-10T15:58:45.009Z,100936.34
2023-01-10T16:01:54.191Z,100925.28
2023-01-10T16:04:57.764Z,100933.44
2023-01-10T16:08:01.778Z,100903.38
2023-01-10T16:11:05.757Z,100920.44
2023-01-10T16:14:08.899Z,100904.84
2023-01-10T16:17:12.486Z,100901.78
2023-01-10T16:20:15.344Z,100904.19
2023-01-10T16:23:18.639Z,100906.31
2023-01-10T16:26:21.216Z,100900.13
2023-01-10T16:29:25.169Z,100885.66
2023-01-10T16:32:27.711Z,100885.00
2023-01-10T16:35:30.347Z,100899.34
2023-01-10T16:38:33.013Z,100877.38
2023-01-10T16:41:53.172Z,100883.91
2023-01-10T16:44:57.097Z,100879.34
2023-01-10T16:47:59.675Z,100876.41
2023-01-10T16:51:06.192Z,100856.22
2023-01-10T16:54:13.991Z,100868.75
2023-01-10T16:57:17.681Z,100857.03
2023-01-10T17:00:22.731Z,100840.13
2023-01-10T17:03:25.586Z,100845.34
2023-01-10T17:06:28.681Z,100844.50
2023-01-10T17:09:31.381Z,100836.19
2023-01-10T17:12:35.825Z,100843.00
2023-01-10T17:15:39.795Z,100821.19
2023-01-10T17:18:42.393Z,100837.59
2023-01-10T17:21:44.942Z,100811.41
2023-01-10T17:24:47.541Z,100801.28
2023-01-10T17:27:50.076Z,100808.25
2023-01-10T17:30:53.948Z,100809.72
2023-01-10T17:33:56.468Z,100808.69
2023-01-10T17:36:59.011Z,100798.25
2023-01-10T17:40:01.647Z,100795.28
2023-01-10T17:43:04.265Z,100803.91
2023-01-10T17:46:08.329Z,100772.78
2023-01-10T17:49:13.219Z,100761.69
2023-01-10T17:52:15.944Z,100773.25
2023-01-10T17:55:18.571Z,100746.00
2023-01-10T17:58:21.284Z,100776.28
2023-01-10T18:01:25.989Z,100769.41
2023-01-10T18:04:28.637Z,100735.50
2023-01-10T18:07:31.205Z,100759.31
2023-01-10T18:10:33.775Z,100747.53
2023-01-10T18:13:36.328Z,100746.88
2023-01-10T18:16:40.401Z,100741.47
2023-01-10T18:19:42.991Z,100721.75
2023-01-10T18:23:04.874Z,100752.03
2023-01-10T18:26:08.798Z,100749.06
2023-01-10T18:29:11.396Z,100731.78
2023-01-10T18:32:15.306Z,100717.69
2023-01-10T18:35:18.034Z,100753.53
2023-01-10T18:38:20.619Z,100736.84
2023-01-10T18:41:23.227Z,100745.63
2023-01-10T18:44:25.819Z,100730.75
2023-01-10T18:47:29.695Z,100718.97
2023-01-10T18:50:32.254Z,100726.72
2023-01-10T18:53:34.854Z,100719.69
2023-01-10T18:56:37.466Z,100734.28
2023-01-10T18:59:40.474Z,100707.16
2023-01-10T19:02:44.417Z,100721.63
2023-01-10T19:05:47.174Z,100719.13
2023-01-10T19:08:51.043Z,100692.28
2023-01-10T19:11:53.617Z,100709.84
2023-01-10T19:14:56.160Z,100713.94
2023-01-10T19:18:00.128Z,100714.38
2023-01-10T19:21:02.758Z,100703.28
2023-01-10T19:24:06.726Z,100711.97
2023-01-10T19:27:09.273Z,100689.19
2023-01-10T19:30:12.447Z,100694.38
2023-01-10T19:33:16.675Z,100676.25
2023-01-10T19:36:20.135Z,100677.06
2023-01-10T19:39:22.668Z,100684.22
2023-01-10T19:42:26.244Z,100679.94
2023-01-10T19:45:28.936Z,100688.06
2023-01-10T19:48:33.939Z,100679.84
2023-01-10T19:51:36.884Z,100695.44
2023-01-10T19:54:39.428Z,100668.25
2023-01-10T19:57:42.022Z,100670.84
2023-01-10T20:00:44.602Z,100668.50
2023-01-10T20:03:48.566Z,100658.78
2023-01-10T20:06:51.204Z,100649.75
2023-01-10T20:09:56.415Z,100648.13
2023-01-10T20:12:58.987Z,100648.25
2023-01-10T20:16:01.571Z,100641.88
2023-01-10T20:19:08.993Z,100648.25
2023-01-10T20:22:12.299Z,100631.13
2023-01-10T20:25:14.851Z,100620.94
2023-01-10T20:28:17.469Z,100611.78
2023-01-10T20:31:21.004Z,100621.28
2023-01-10T20:34:25.001Z,100643.97
2023-01-10T20:37:27.538Z,100619.44
2023-01-10T20:40:30.060Z,100625.34
2023-01-10T20:43:32.649Z,100632.50
2023-01-10T20:46:36.546Z,100627.78
2023-01-10T20:49:40.441Z,100614.78
2023-01-10T20:52:43.022Z,100622.44
2023-01-10T20:55:56.291Z,100618.25
2023-01-10T20:59:01.976Z,100605.16
2023-01-10T21:02:04.824Z,100595.78
2023-01-10T21:05:09.727Z,100596.69
2023-01-10T21:08:12.268Z,100599.22
2023-01-10T21:11:15.041Z,100589.84
2023-01-10T21:14:17.640Z,100604.97
2023-01-10T21:17:20.652Z,100584.38
2023-01-10T21:20:27.625Z,100589.13
2023-01-10T21:23:30.266Z,100568.63
2023-01-10T21:26:32.846Z,100572.69
2023-01-10T21:29:35.757Z,100558.78
2023-01-10T21:32:38.325Z,100527.41
2023-01-10T21:35:42.288Z,100550.53
2023-01-10T21:38:44.941Z,100540.34
2023-01-10T21:42:04.957Z,100531.28
2023-01-10T21:45:08.523Z,100546.53
2023-01-10T21:48:11.059Z,100538.38
2023-01-10T21:51:14.962Z,100522.59
2023-01-10T21:54:17.510Z,100529.09
2023-01-10T21:57:22.265Z,100524.16
2023-01-10T22:00:25.016Z,100534.31
2023-01-10T22:03:27.643Z,100520.56
2023-01-10T22:06:31.609Z,100521.13
2023-01-10T22:09:34.227Z,100508.47
2023-01-10T22:12:37.527Z,100510.06
2023-01-10T22:15:41.055Z,100507.38
2023-01-10T22:18:44.865Z,100510.97
2023-01-10T22:21:49.526Z,100518.25
2023-01-10T22:24:52.077Z,100501.66
2023-01-10T22:27:54.672Z,100520.75
2023-01-10T22:30:57.316Z,100497.66
2023-01-10T22:33:59.864Z,100512.41
2023-01-10T22:37:03.750Z,100503.69
2023-01-10T22:40:07.713Z,100497.66
2023-01-10T22:43:10.302Z,100494.53
2023-01-10T22:46:15.404Z,100493.44
2023-01-10T22:49:18.256Z,100487.63
2023-01-10T22:52:22.139Z,100480.16
2023-01-10T22:55:24.736Z,100473.41
2023-01-10T22:58:27.307Z,100484.28
2023-01-10T23:01:29.830Z,100466.75
2023-01-10T23:04:32.405Z,100474.47
2023-01-10T23:07:36.319Z,100464.19
2023-01-10T23:10:39.391Z,100469.94
2023-01-10T23:13:41.964Z,100472.00
2023-01-10T23:16:44.621Z,100458.50
2023-01-10T23:19:47.168Z,100467.31
2023-01-10T23:22:51.087Z,100467.31
2023-01-10T23:26:02.203Z,100470.47
2023-01-10T23:29:04.728Z,100464.38
2023-01-10T23:32:07.384Z,100472.31
2023-01-10T23:35:10.531Z,100462.69
2023-01-10T23:38:14.400Z,100465.09
2023-01-10T23:41:17.030Z,100471.50
2023-01-10T23:44:19.570Z,100463.50
2023-01-10T23:47:22.104Z,100465.91
2023-01-10T23:50:26.277Z,100468.78
2023-01-10T23:53:30.171Z,100477.19
2023-01-10T23:56:32.691Z,100470.84
2023-01-10T23:59:35.219Z,100470.09
